Zirfaea — PBZV — position and weather

sailwx.info

Track history (hours):
 
Tides and Currents Weather Stations Pressure Air Temp Water Temp Dewpoint Dewpoint Depression Visibility Wind Speed Wind Dir Waves Ship Positions

Oceanographic research ship Zirfaea (Netherlands)

Detailed information on ship capabilities available from University of Delaware's Ocean Information Center.

Last reported at 2020-Aug-10 00:29 UTC. Time now 2020-Aug-10 01:43 UTC.
Position N 52°06' E 004°16'.

Length 63 m; draft 3.9 m.

Type: Law enforcement. MMSI: 246096000.

Date/timePositionNaut miles runAvg speedWind from/ knotsBaromVisibWave heightAir tempDewpointWater temp
2020-Aug-10 00:29N 52°06' E 004°16'0 0.0
2020-Aug-09 23:29N 52°06' E 004°16'0 0.0
2020-Aug-09 19:59N 52°06' E 004°16'0 0.0
2020-Aug-09 18:29N 52°06' E 004°16'0 0.0
2020-Aug-09 16:29N 52°06' E 004°16'0 0.0
2020-Aug-09 14:59N 52°06' E 004°16'0 0.0
2020-Aug-09 12:29N 52°06' E 004°16'0 0.0
2020-Aug-09 10:59N 52°06' E 004°16'0 0.0
2020-Aug-09 09:29N 52°06' E 004°16'0 0.0
2020-Aug-09 07:29N 52°06' E 004°16'0 0.0
2020-Aug-09 06:59N 52°06' E 004°16'0 0.0
2020-Aug-09 05:29N 52°06' E 004°16'0 0.0
2020-Aug-09 04:29N 52°06' E 004°16'0 0.0
2020-Aug-08 23:29N 52°06' E 004°16'0 0.0
2020-Aug-08 22:29N 52°06' E 004°16'0 0.0
2020-Aug-08 21:29N 52°06' E 004°16'0 0.0
2020-Aug-08 17:29N 52°06' E 004°16'0 0.0
2020-Aug-08 14:29N 52°06' E 004°16'0 0.0
2020-Aug-08 12:59N 52°06' E 004°16'0 0.0
2020-Aug-08 11:29N 52°06' E 004°16'0 0.0
2020-Aug-08 10:59N 52°06' E 004°16'0 0.0
2020-Aug-08 09:29N 52°06' E 004°16'0 0.0
2020-Aug-08 08:59N 52°06' E 004°16'0 0.0
2020-Aug-08 07:59N 52°06' E 004°16'0 0.0
2020-Aug-08 04:59N 52°06' E 004°16'0 0.0
2020-Aug-08 03:59N 52°06' E 004°16'0 0.0
2020-Aug-08 03:29N 52°06' E 004°16'0 0.0
2020-Aug-08 02:59N 52°06' E 004°16'0 0.0
2020-Aug-08 00:59N 52°06' E 004°16'0 0.0
2020-Aug-07 23:59N 52°06' E 004°16'0 0.0
2020-Aug-07 21:59N 52°06' E 004°16'0 0.0
2020-Aug-07 19:29N 52°06' E 004°16'0 0.0
2020-Aug-07 17:29N 52°06' E 004°16'0 0.0
2020-Aug-07 16:29N 52°06' E 004°16'0 0.0
2020-Aug-07 13:59N 52°06' E 004°16'0 0.0
2020-Aug-07 12:59N 52°06' E 004°16'0 0.0
2020-Aug-07 12:29N 52°06' E 004°16'0 0.0
2020-Aug-07 10:29N 52°06' E 004°16'0 0.0
2020-Aug-07 09:59N 52°06' E 004°16'0 0.0
2020-Aug-07 06:29N 52°06' E 004°16'8 5.3
2020-Aug-07 05:00N 52°14' E 004°18'3 6.0
2020-Aug-07 04:31N 52°16' E 004°20'0 0.2
2020-Aug-07 04:00N 52°16' E 004°20'1 1.8
2020-Aug-07 03:30N 52°15' E 004°19'9 3.6
2020-Aug-07 01:00N 52°24' E 004°24'11 7.3
2020-Aug-06 23:31N 52°34' E 004°28'15 7.3
2020-Aug-06 21:31N 52°49' E 004°31'37 2.4
2020-Aug-06 06:00N 53°23' E 004°52'0 0.9
2020-Aug-06 05:30N 53°24' E 004°52'2 2.0
2020-Aug-06 04:30N 53°23' E 004°49'0 0.8
2020-Aug-06 03:59N 53°23' E 004°49'0 0.2
2020-Aug-06 02:00N 53°23' E 004°48'0 0.0
2020-Aug-05 22:30N 53°22' E 004°48'2 0.2
2020-Aug-05 12:13N 53°23' E 004°51'1 0.3
2020-Aug-05 09:30N 53°23' E 004°50'1 0.2
2020-Aug-05 04:11N 53°23' E 004°49'45 1.2
2020-Aug-03 13:00N 52°39' E 004°29'16 8.3
2020-Aug-03 11:01N 52°23' E 004°23'9 9.4
2020-Aug-03 10:00N 52°14' E 004°18'5 9.3
2020-Aug-03 09:30N 52°10' E 004°16'4 7.6
2020-Aug-03 09:00N 52°06' E 004°16'0 0.0
2020-Aug-03 07:00N 52°06' E 004°16'0 0.0
2020-Aug-03 05:30N 52°06' E 004°16'0 0.0
2020-Aug-03 04:30N 52°06' E 004°16'0 0.0
2020-Aug-03 03:30N 52°06' E 004°16'0 0.0
2020-Aug-03 00:00N 52°06' E 004°16'0 0.0
2020-Aug-02 17:30N 52°06' E 004°16'0 0.0
2020-Aug-02 16:30N 52°06' E 004°16'0 0.0
2020-Aug-02 13:30N 52°06' E 004°16'0 0.0
2020-Aug-02 13:00N 52°06' E 004°16'0 0.0
2020-Aug-02 12:30N 52°06' E 004°16'0 0.0
2020-Aug-02 10:30N 52°06' E 004°16'0 0.0
2020-Aug-02 10:00N 52°06' E 004°16'0 0.0
2020-Aug-02 06:30N 52°06' E 004°16'0 0.0
2020-Aug-02 05:00N 52°06' E 004°16'0 0.0
2020-Aug-02 04:30N 52°06' E 004°16'0 0.0
2020-Aug-02 04:00N 52°06' E 004°16'0 0.0
2020-Aug-02 03:00N 52°06' E 004°16'0 0.0
2020-Aug-02 02:00N 52°06' E 004°16'0 0.0
2020-Aug-02 01:00N 52°06' E 004°16'0 0.0
2020-Aug-01 22:30N 52°06' E 004°16'0 0.0
2020-Aug-01 16:00N 52°06' E 004°16'0 0.0
2020-Aug-01 14:00N 52°06' E 004°16'0 0.0
2020-Aug-01 11:30N 52°06' E 004°16'0 0.0
2020-Aug-01 09:30N 52°06' E 004°16'0 0.0
2020-Aug-01 05:30N 52°06' E 004°16'0 0.0
2020-Aug-01 03:00N 52°06' E 004°16'0 0.0
2020-Aug-01 02:30N 52°06' E 004°16'0 0.0
2020-Aug-01 00:30N 52°06' E 004°16'0 0.0
2020-Aug-01 00:00N 52°06' E 004°16'0 0.0
2020-Jul-31 21:30N 52°06' E 004°16'0 0.0
2020-Jul-31 18:00N 52°06' E 004°16'0 0.0
2020-Jul-31 15:30N 52°06' E 004°16'0 0.0
2020-Jul-31 12:00N 52°06' E 004°16'0 0.0
2020-Jul-31 10:00N 52°06' E 004°16'0 0.0
2020-Jul-31 06:30N 52°06' E 004°16'0 0.0
2020-Jul-31 06:00N 52°06' E 004°16'0 0.0
2020-Jul-31 05:00N 52°06' E 004°16'0 0.0
2020-Jul-31 04:00N 52°06' E 004°16'0 0.0
2020-Jul-31 01:00N 52°06' E 004°16'0 0.0
2020-Jul-31 00:30N 52°06' E 004°16'  
Track history (hours):
 
Tides and Currents Weather Stations Pressure Air Temp Water Temp Dewpoint Dewpoint Depression Visibility Wind Speed Wind Dir Waves Ship Positions

Oceanographic research ship Zirfaea (Netherlands)

Detailed information on ship capabilities available from University of Delaware's Ocean Information Center.

Last reported at 2020-Aug-10 00:29 UTC. Time now 2020-Aug-10 01:43 UTC.
Position N 52°06' E 004°16'.

Length 63 m; draft 3.9 m.

Type: Law enforcement. MMSI: 246096000.

Date/timePositionNaut miles runAvg speedWind from/ knotsBaromVisibWave heightAir tempDewpointWater temp
2020-Aug-10 00:29N 52°06' E 004°16'0 0.0
2020-Aug-09 23:29N 52°06' E 004°16'0 0.0
2020-Aug-09 19:59N 52°06' E 004°16'0 0.0
2020-Aug-09 18:29N 52°06' E 004°16'0 0.0
2020-Aug-09 16:29N 52°06' E 004°16'0 0.0
2020-Aug-09 14:59N 52°06' E 004°16'0 0.0
2020-Aug-09 12:29N 52°06' E 004°16'0 0.0
2020-Aug-09 10:59N 52°06' E 004°16'0 0.0
2020-Aug-09 09:29N 52°06' E 004°16'0 0.0
2020-Aug-09 07:29N 52°06' E 004°16'0 0.0
2020-Aug-09 06:59N 52°06' E 004°16'0 0.0
2020-Aug-09 05:29N 52°06' E 004°16'0 0.0
2020-Aug-09 04:29N 52°06' E 004°16'0 0.0
2020-Aug-08 23:29N 52°06' E 004°16'0 0.0
2020-Aug-08 22:29N 52°06' E 004°16'0 0.0
2020-Aug-08 21:29N 52°06' E 004°16'0 0.0
2020-Aug-08 17:29N 52°06' E 004°16'0 0.0
2020-Aug-08 14:29N 52°06' E 004°16'0 0.0
2020-Aug-08 12:59N 52°06' E 004°16'0 0.0
2020-Aug-08 11:29N 52°06' E 004°16'0 0.0
2020-Aug-08 10:59N 52°06' E 004°16'0 0.0
2020-Aug-08 09:29N 52°06' E 004°16'0 0.0
2020-Aug-08 08:59N 52°06' E 004°16'0 0.0
2020-Aug-08 07:59N 52°06' E 004°16'0 0.0
2020-Aug-08 04:59N 52°06' E 004°16'0 0.0
2020-Aug-08 03:59N 52°06' E 004°16'0 0.0
2020-Aug-08 03:29N 52°06' E 004°16'0 0.0
2020-Aug-08 02:59N 52°06' E 004°16'0 0.0
2020-Aug-08 00:59N 52°06' E 004°16'0 0.0
2020-Aug-07 23:59N 52°06' E 004°16'0 0.0
2020-Aug-07 21:59N 52°06' E 004°16'0 0.0
2020-Aug-07 19:29N 52°06' E 004°16'0 0.0
2020-Aug-07 17:29N 52°06' E 004°16'0 0.0
2020-Aug-07 16:29N 52°06' E 004°16'0 0.0
2020-Aug-07 13:59N 52°06' E 004°16'0 0.0
2020-Aug-07 12:59N 52°06' E 004°16'0 0.0
2020-Aug-07 12:29N 52°06' E 004°16'0 0.0
2020-Aug-07 10:29N 52°06' E 004°16'0 0.0
2020-Aug-07 09:59N 52°06' E 004°16'0 0.0
2020-Aug-07 06:29N 52°06' E 004°16'8 5.3
2020-Aug-07 05:00N 52°14' E 004°18'3 6.0
2020-Aug-07 04:31N 52°16' E 004°20'0 0.2
2020-Aug-07 04:00N 52°16' E 004°20'1 1.8
2020-Aug-07 03:30N 52°15' E 004°19'9 3.6
2020-Aug-07 01:00N 52°24' E 004°24'11 7.3
2020-Aug-06 23:31N 52°34' E 004°28'15 7.3
2020-Aug-06 21:31N 52°49' E 004°31'37 2.4
2020-Aug-06 06:00N 53°23' E 004°52'0 0.9
2020-Aug-06 05:30N 53°24' E 004°52'2 2.0
2020-Aug-06 04:30N 53°23' E 004°49'0 0.8
2020-Aug-06 03:59N 53°23' E 004°49'0 0.2
2020-Aug-06 02:00N 53°23' E 004°48'0 0.0
2020-Aug-05 22:30N 53°22' E 004°48'2 0.2
2020-Aug-05 12:13N 53°23' E 004°51'1 0.3
2020-Aug-05 09:30N 53°23' E 004°50'1 0.2
2020-Aug-05 04:11N 53°23' E 004°49'45 1.2
2020-Aug-03 13:00N 52°39' E 004°29'16 8.3
2020-Aug-03 11:01N 52°23' E 004°23'9 9.4
2020-Aug-03 10:00N 52°14' E 004°18'5 9.3
2020-Aug-03 09:30N 52°10' E 004°16'4 7.6
2020-Aug-03 09:00N 52°06' E 004°16'0 0.0
2020-Aug-03 07:00N 52°06' E 004°16'0 0.0
2020-Aug-03 05:30N 52°06' E 004°16'0 0.0
2020-Aug-03 04:30N 52°06' E 004°16'0 0.0
2020-Aug-03 03:30N 52°06' E 004°16'0 0.0
2020-Aug-03 00:00N 52°06' E 004°16'0 0.0
2020-Aug-02 17:30N 52°06' E 004°16'0 0.0
2020-Aug-02 16:30N 52°06' E 004°16'0 0.0
2020-Aug-02 13:30N 52°06' E 004°16'0 0.0
2020-Aug-02 13:00N 52°06' E 004°16'0 0.0
2020-Aug-02 12:30N 52°06' E 004°16'0 0.0
2020-Aug-02 10:30N 52°06' E 004°16'0 0.0
2020-Aug-02 10:00N 52°06' E 004°16'0 0.0
2020-Aug-02 06:30N 52°06' E 004°16'0 0.0
2020-Aug-02 05:00N 52°06' E 004°16'0 0.0
2020-Aug-02 04:30N 52°06' E 004°16'0 0.0
2020-Aug-02 04:00N 52°06' E 004°16'0 0.0
2020-Aug-02 03:00N 52°06' E 004°16'0 0.0
2020-Aug-02 02:00N 52°06' E 004°16'0 0.0
2020-Aug-02 01:00N 52°06' E 004°16'0 0.0
2020-Aug-01 22:30N 52°06' E 004°16'0 0.0
2020-Aug-01 16:00N 52°06' E 004°16'0 0.0
2020-Aug-01 14:00N 52°06' E 004°16'0 0.0
2020-Aug-01 11:30N 52°06' E 004°16'0 0.0
2020-Aug-01 09:30N 52°06' E 004°16'0 0.0
2020-Aug-01 05:30N 52°06' E 004°16'0 0.0
2020-Aug-01 03:00N 52°06' E 004°16'0 0.0
2020-Aug-01 02:30N 52°06' E 004°16'0 0.0
2020-Aug-01 00:30N 52°06' E 004°16'0 0.0
2020-Aug-01 00:00N 52°06' E 004°16'0 0.0
2020-Jul-31 21:30N 52°06' E 004°16'0 0.0
2020-Jul-31 18:00N 52°06' E 004°16'0 0.0
2020-Jul-31 15:30N 52°06' E 004°16'0 0.0
2020-Jul-31 12:00N 52°06' E 004°16'0 0.0
2020-Jul-31 10:00N 52°06' E 004°16'0 0.0
2020-Jul-31 06:30N 52°06' E 004°16'0 0.0
2020-Jul-31 06:00N 52°06' E 004°16'0 0.0
2020-Jul-31 05:00N 52°06' E 004°16'0 0.0
2020-Jul-31 04:00N 52°06' E 004°16'0 0.0
2020-Jul-31 01:00N 52°06' E 004°16'0 0.0
2020-Jul-31 00:30N 52°06' E 004°16'  

Dump ship's entire track history